Time;durP1;ratioP1;P1;durP2;ratioP2;P2;SDS_P1;SDS_P2;PMS_P1;PMS_P2;Temp;Humidity;BMP_temperature;BMP_pressure;BME280_temperature;BME280_humidity;BME280_pressure;Samples;Min_cycle;Max_cycle;Signal;HPM_P1;HPM_P2
2023/06/16 00:02:06;;;;;;;0.00;0.00;;;;;;;;;;6165003;23;20013;-80
2023/06/16 00:04:52;;;;;;;0.00;0.00;;;;;;;;;;6163726;23;20066;-80
2023/06/16 00:07:38;;;;;;;0.10;0.10;;;;;;;;;;6142610;23;20298;-80
2023/06/16 00:10:23;;;;;;;0.00;0.00;;;;;;;;;;6164445;23;20009;-80
2023/06/16 00:13:09;;;;;;;0.05;0.05;;;;;;;;;;6164798;23;20029;-80
2023/06/16 00:15:55;;;;;;;0.10;0.10;;;;;;;;;;6142170;23;20028;-80
2023/06/16 00:18:43;;;;;;;0.00;0.00;;;;;;;;;;6165638;23;20023;-81
2023/06/16 00:21:35;;;;;;;0.00;0.00;;;;;;;;;;6164344;23;20059;-80
2023/06/16 00:24:21;;;;;;;0.00;0.00;;;;;;;;;;6162353;23;20027;-80
2023/06/16 00:27:07;;;;;;;0.10;0.10;;;;;;;;;;6140520;23;20443;-80
2023/06/16 00:29:52;;;;;;;0.00;0.00;;;;;;;;;;6165379;23;20070;-79
2023/06/16 00:32:38;;;;;;;0.00;0.00;;;;;;;;;;6167422;23;20017;-80
2023/06/16 00:35:24;;;;;;;0.08;0.08;;;;;;;;;;6162399;23;20028;-80
2023/06/16 00:42:01;;;;;;;0.00;0.00;;;;;;;;;;6164606;23;20053;-80
2023/06/16 00:44:47;;;;;;;0.10;0.10;;;;;;;;;;6141263;23;20330;-80
2023/06/16 00:47:32;;;;;;;0.10;0.10;;;;;;;;;;6141913;23;20017;-80
2023/06/16 00:50:18;;;;;;;0.10;0.10;;;;;;;;;;6142142;23;20020;-80
2023/06/16 00:53:05;;;;;;;0.00;0.00;;;;;;;;;;6161355;23;20055;-80
2023/06/16 00:55:50;;;;;;;0.08;0.08;;;;;;;;;;6143733;23;20439;-80
2023/06/16 00:58:37;;;;;;;0.10;0.10;;;;;;;;;;6141919;23;20012;-80
2023/06/16 01:01:28;;;;;;;0.00;0.00;;;;;;;;;;6164294;23;20454;-80
2023/06/16 01:04:14;;;;;;;0.13;0.10;;;;;;;;;;6137767;23;20021;-80
2023/06/16 01:07:09;;;;;;;0.00;0.00;;;;;;;;;;6163719;23;20041;-80
2023/06/16 01:10:00;;;;;;;0.00;0.00;;;;;;;;;;6162084;23;20757;-81
2023/06/16 01:12:55;;;;;;;0.10;0.10;;;;;;;;;;6163336;23;20020;-80
2023/06/16 01:15:43;;;;;;;0.00;0.00;;;;;;;;;;6163853;23;20490;-80
2023/06/16 01:18:31;;;;;;;0.08;0.08;;;;;;;;;;6164476;23;20414;-80
2023/06/16 01:21:37;;;;;;;0.00;0.00;;;;;;;;;;6140415;23;20013;-80
2023/06/16 01:24:24;;;;;;;0.10;0.10;;;;;;;;;;6115070;23;20550;-80
2023/06/16 01:27:13;;;;;;;0.10;0.10;;;;;;;;;;6104295;23;20010;-80
2023/06/16 01:30:00;;;;;;;0.10;0.10;;;;;;;;;;6104114;23;20025;-80
2023/06/16 01:32:47;;;;;;;0.00;0.00;;;;;;;;;;6105229;23;20017;-80
2023/06/16 01:35:33;;;;;;;0.00;0.00;;;;;;;;;;6106890;23;20041;-80
2023/06/16 01:38:20;;;;;;;0.10;0.10;;;;;;;;;;6105582;23;20017;-80
2023/06/16 01:41:06;;;;;;;0.00;0.00;;;;;;;;;;6105677;23;20254;-80
2023/06/16 01:43:52;;;;;;;0.00;0.00;;;;;;;;;;6106522;23;20049;-80
2023/06/16 01:46:38;;;;;;;0.05;0.05;;;;;;;;;;6106762;23;20052;-80
2023/06/16 01:49:24;;;;;;;0.10;0.10;;;;;;;;;;6105631;23;20013;-80
2023/06/16 01:52:10;;;;;;;0.08;0.08;;;;;;;;;;6105380;23;20025;-80
2023/06/16 01:54:56;;;;;;;0.00;0.00;;;;;;;;;;6108305;23;20741;-80
2023/06/16 01:57:42;;;;;;;0.10;0.10;;;;;;;;;;6107623;23;20451;-80
2023/06/16 02:00:33;;;;;;;0.10;0.10;;;;;;;;;;6104063;23;20029;-81
2023/06/16 02:03:26;;;;;;;0.10;0.10;;;;;;;;;;6106505;23;20018;-80
2023/06/16 02:06:17;;;;;;;0.10;0.10;;;;;;;;;;6106944;23;20084;-80
2023/06/16 02:09:04;;;;;;;0.08;0.08;;;;;;;;;;6106296;23;20014;-80
2023/06/16 02:11:51;;;;;;;0.00;0.00;;;;;;;;;;6105902;23;20020;-80
2023/06/16 02:14:40;;;;;;;0.00;0.00;;;;;;;;;;6106629;23;20230;-80
2023/06/16 02:17:29;;;;;;;0.10;0.10;;;;;;;;;;6105074;23;20357;-80
2023/06/16 02:20:17;;;;;;;0.10;0.10;;;;;;;;;;6105342;23;20296;-80
2023/06/16 02:23:03;;;;;;;0.10;0.10;;;;;;;;;;6112414;23;20324;-80
2023/06/16 02:25:49;;;;;;;0.10;0.10;;;;;;;;;;6165895;23;20120;-80
2023/06/16 02:28:35;;;;;;;0.00;0.00;;;;;;;;;;6165713;23;20013;-80
2023/06/16 02:31:21;;;;;;;0.10;0.10;;;;;;;;;;6141095;23;20075;-80
2023/06/16 02:34:06;;;;;;;0.10;0.10;;;;;;;;;;6165541;23;20057;-80
2023/06/16 02:36:52;;;;;;;0.00;0.00;;;;;;;;;;6165964;23;20378;-80
2023/06/16 02:39:39;;;;;;;0.10;0.10;;;;;;;;;;6165411;23;20139;-80
2023/06/16 02:42:25;;;;;;;0.10;0.10;;;;;;;;;;6142737;23;20525;-80
2023/06/16 02:45:10;;;;;;;0.10;0.10;;;;;;;;;;6141735;23;20020;-80
2023/06/16 02:47:56;;;;;;;0.10;0.10;;;;;;;;;;6142056;23;20109;-80
2023/06/16 02:50:42;;;;;;;0.05;0.05;;;;;;;;;;6142811;23;20013;-80
2023/06/16 02:53:33;;;;;;;0.10;0.10;;;;;;;;;;6143156;23;20029;-80
2023/06/16 02:56:20;;;;;;;0.10;0.10;;;;;;;;;;6142824;23;20474;-80
2023/06/16 02:59:07;;;;;;;0.00;0.00;;;;;;;;;;6141274;23;20013;-80
2023/06/16 03:01:53;;;;;;;0.10;0.10;;;;;;;;;;6144320;23;20369;-80
2023/06/16 03:08:34;;;;;;;0.05;0.05;;;;;;;;;;6165636;23;20419;-79
2023/06/16 03:11:20;;;;;;;0.08;0.08;;;;;;;;;;6141268;23;20016;-79
2023/06/16 03:14:12;;;;;;;0.10;0.10;;;;;;;;;;6141406;23;20021;-78
2023/06/16 03:17:00;;;;;;;0.10;0.10;;;;;;;;;;6143827;23;20017;-79
2023/06/16 03:19:49;;;;;;;0.10;0.10;;;;;;;;;;6143892;23;20017;-78
2023/06/16 03:22:40;;;;;;;0.03;0.03;;;;;;;;;;6143540;23;20359;-77
2023/06/16 03:25:26;;;;;;;0.00;0.00;;;;;;;;;;6140438;23;20028;-79
2023/06/16 03:28:13;;;;;;;0.00;0.00;;;;;;;;;;6141686;23;20332;-80
2023/06/16 03:31:00;;;;;;;0.10;0.10;;;;;;;;;;6143307;23;20028;-77
2023/06/16 03:34:05;;;;;;;0.00;0.00;;;;;;;;;;6141345;23;20446;-78
2023/06/16 03:36:50;;;;;;;0.03;0.03;;;;;;;;;;6164377;23;20442;-77
2023/06/16 03:39:40;;;;;;;0.10;0.10;;;;;;;;;;6143040;23;20429;-78
2023/06/16 03:42:26;;;;;;;0.00;0.00;;;;;;;;;;6141378;23;20024;-78
2023/06/16 03:45:12;;;;;;;0.10;0.10;;;;;;;;;;6141834;23;20013;-79
2023/06/16 03:47:57;;;;;;;0.10;0.10;;;;;;;;;;6165913;23;20072;-78
2023/06/16 03:50:43;;;;;;;0.00;0.00;;;;;;;;;;6142003;23;20013;-78
2023/06/16 03:53:30;;;;;;;0.05;0.05;;;;;;;;;;6140479;23;20028;-79
2023/06/16 03:56:18;;;;;;;0.10;0.10;;;;;;;;;;6140306;23;20064;-79
2023/06/16 03:59:04;;;;;;;0.10;0.10;;;;;;;;;;6142438;23;20051;-79
2023/06/16 04:01:51;;;;;;;0.10;0.10;;;;;;;;;;6142330;23;20009;-78
2023/06/16 04:04:37;;;;;;;0.00;0.00;;;;;;;;;;6143496;23;20013;-78
2023/06/16 04:11:15;;;;;;;0.10;0.10;;;;;;;;;;6166716;23;20056;-78
2023/06/16 04:14:01;;;;;;;0.10;0.10;;;;;;;;;;6165501;23;20057;-78
2023/06/16 04:16:48;;;;;;;0.10;0.10;;;;;;;;;;6143762;23;20023;-78
2023/06/16 04:19:34;;;;;;;0.10;0.10;;;;;;;;;;6142569;23;20474;-78
2023/06/16 04:22:21;;;;;;;0.10;0.10;;;;;;;;;;6142700;23;20043;-78
2023/06/16 04:25:12;;;;;;;0.00;0.00;;;;;;;;;;6142449;23;20021;-79
2023/06/16 04:28:01;;;;;;;0.10;0.10;;;;;;;;;;6146285;23;20033;-77
2023/06/16 04:30:50;;;;;;;0.10;0.10;;;;;;;;;;6144406;23;20180;-79
2023/06/16 04:33:36;;;;;;;0.10;0.10;;;;;;;;;;6166335;23;20013;-78
2023/06/16 04:36:29;;;;;;;0.10;0.10;;;;;;;;;;6125650;23;20009;-79
2023/06/16 04:39:16;;;;;;;0.00;0.00;;;;;;;;;;6145580;23;20339;-77
2023/06/16 04:42:04;;;;;;;0.00;0.00;;;;;;;;;;6142706;23;20434;-78
2023/06/16 04:44:51;;;;;;;0.10;0.10;;;;;;;;;;6144462;23;20155;-78
2023/06/16 04:47:40;;;;;;;0.05;0.05;;;;;;;;;;6143890;23;20522;-77
2023/06/16 04:50:26;;;;;;;0.10;0.10;;;;;;;;;;6143587;23;20013;-79
2023/06/16 04:53:11;;;;;;;0.00;0.00;;;;;;;;;;6143040;23;20017;-78
2023/06/16 04:55:57;;;;;;;0.10;0.10;;;;;;;;;;6167656;23;20446;-79
2023/06/16 04:58:43;;;;;;;0.10;0.10;;;;;;;;;;6144526;23;20024;-79
2023/06/16 05:01:29;;;;;;;0.10;0.10;;;;;;;;;;6144347;23;20021;-79
2023/06/16 05:04:14;;;;;;;0.00;0.00;;;;;;;;;;6148438;23;20017;-78
2023/06/16 05:10:49;;;;;;;0.10;0.10;;;;;;;;;;6169901;23;20477;-78
2023/06/16 05:13:34;;;;;;;0.10;0.10;;;;;;;;;;6167397;23;20024;-79
2023/06/16 05:16:23;;;;;;;0.10;0.10;;;;;;;;;;6143324;23;20021;-79
2023/06/16 05:19:10;;;;;;;0.10;0.10;;;;;;;;;;6125971;23;20297;-80
2023/06/16 05:22:04;;;;;;;0.10;0.10;;;;;;;;;;6146037;23;20327;-79
2023/06/16 05:24:53;;;;;;;0.10;0.10;;;;;;;;;;6145231;23;20029;-80
2023/06/16 05:27:39;;;;;;;0.10;0.10;;;;;;;;;;6146520;23;20108;-80
2023/06/16 05:30:26;;;;;;;0.03;0.03;;;;;;;;;;6143749;23;20092;-79
2023/06/16 05:33:13;;;;;;;0.10;0.10;;;;;;;;;;6145020;23;20416;-79
2023/06/16 05:35:58;;;;;;;0.10;0.10;;;;;;;;;;6146999;23;20020;-79
2023/06/16 05:38:44;;;;;;;0.10;0.10;;;;;;;;;;6144396;23;20447;-79
2023/06/16 05:41:31;;;;;;;0.10;0.10;;;;;;;;;;6146105;23;20037;-79
2023/06/16 05:44:18;;;;;;;0.10;0.10;;;;;;;;;;6146016;23;20021;-80
2023/06/16 05:47:04;;;;;;;0.10;0.10;;;;;;;;;;6148217;23;20016;-80
2023/06/16 05:49:50;;;;;;;0.10;0.10;;;;;;;;;;6145033;23;20021;-79
2023/06/16 05:52:37;;;;;;;0.00;0.00;;;;;;;;;;6167466;23;20017;-79
2023/06/16 05:55:22;;;;;;;0.10;0.10;;;;;;;;;;6144372;23;20021;-79
2023/06/16 05:58:13;;;;;;;0.10;0.10;;;;;;;;;;6143096;23;20048;-80
2023/06/16 06:00:59;;;;;;;0.10;0.10;;;;;;;;;;6144087;23;20013;-79
2023/06/16 06:03:46;;;;;;;0.10;0.10;;;;;;;;;;6144577;23;20125;-79
2023/06/16 06:06:33;;;;;;;0.10;0.10;;;;;;;;;;6143911;23;20023;-81
2023/06/16 06:09:20;;;;;;;0.00;0.00;;;;;;;;;;6144761;23;20013;-80
2023/06/16 06:12:06;;;;;;;0.10;0.10;;;;;;;;;;6145491;23;20438;-79
2023/06/16 06:14:52;;;;;;;0.10;0.10;;;;;;;;;;6143737;23;20017;-80
2023/06/16 06:17:38;;;;;;;0.10;0.10;;;;;;;;;;6164754;23;20021;-80
2023/06/16 06:20:24;;;;;;;0.10;0.10;;;;;;;;;;6143613;23;20017;-80
2023/06/16 06:23:12;;;;;;;0.13;0.13;;;;;;;;;;6143979;23;20071;-79
2023/06/16 06:25:59;;;;;;;0.10;0.10;;;;;;;;;;6142558;23;20028;-80
2023/06/16 06:28:45;;;;;;;0.10;0.10;;;;;;;;;;6168100;23;20350;-80
2023/06/16 06:31:31;;;;;;;0.10;0.10;;;;;;;;;;6143289;23;20107;-80
2023/06/16 06:34:17;;;;;;;0.05;0.05;;;;;;;;;;6142947;23;20055;-80
2023/06/16 06:37:03;;;;;;;0.22;0.10;;;;;;;;;;6143875;23;20017;-79
2023/06/16 06:39:49;;;;;;;0.10;0.10;;;;;;;;;;6144916;23;20012;-80
2023/06/16 06:42:35;;;;;;;0.10;0.10;;;;;;;;;;6144449;23;20275;-79
2023/06/16 06:45:23;;;;;;;0.15;0.10;;;;;;;;;;6165940;23;20872;-80
2023/06/16 06:48:10;;;;;;;0.10;0.10;;;;;;;;;;6144294;23;20063;-81
2023/06/16 06:50:57;;;;;;;0.00;0.00;;;;;;;;;;6142808;23;20459;-80
2023/06/16 06:53:43;;;;;;;0.10;0.10;;;;;;;;;;6167116;23;20016;-80
2023/06/16 06:56:29;;;;;;;0.10;0.10;;;;;;;;;;6163509;23;20025;-79
2023/06/16 06:59:14;;;;;;;0.10;0.10;;;;;;;;;;6164895;23;20013;-80
2023/06/16 07:02:00;;;;;;;0.10;0.10;;;;;;;;;;6164134;23;20494;-79
2023/06/16 07:08:35;;;;;;;0.10;0.10;;;;;;;;;;6167643;23;20009;-80
2023/06/16 07:11:21;;;;;;;0.10;0.10;;;;;;;;;;6167060;23;20013;-80
2023/06/16 07:14:06;;;;;;;0.10;0.10;;;;;;;;;;6166504;23;20493;-80
2023/06/16 07:16:52;;;;;;;0.00;0.00;;;;;;;;;;6166382;23;20510;-80
2023/06/16 07:19:38;;;;;;;0.10;0.10;;;;;;;;;;6166945;23;20490;-80
2023/06/16 07:22:23;;;;;;;0.10;0.10;;;;;;;;;;6165541;23;20363;-80
2023/06/16 07:25:09;;;;;;;0.10;0.10;;;;;;;;;;6165242;23;20031;-80
2023/06/16 07:27:55;;;;;;;0.10;0.10;;;;;;;;;;6164438;23;20009;-80
2023/06/16 07:30:41;;;;;;;0.10;0.10;;;;;;;;;;6164890;23;20013;-79
2023/06/16 07:33:26;;;;;;;0.10;0.10;;;;;;;;;;6164129;23;20042;-79
2023/06/16 07:36:12;;;;;;;0.10;0.10;;;;;;;;;;6163846;23;20013;-78
2023/06/16 07:38:58;;;;;;;0.10;0.10;;;;;;;;;;6164950;23;20024;-78
2023/06/16 07:41:44;;;;;;;0.10;0.10;;;;;;;;;;6166965;23;20017;-78
2023/06/16 07:44:29;;;;;;;0.10;0.10;;;;;;;;;;6167514;23;20024;-78
2023/06/16 07:47:15;;;;;;;0.10;0.10;;;;;;;;;;6163394;23;20044;-78
2023/06/16 07:50:01;;;;;;;0.10;0.10;;;;;;;;;;6165737;23;20510;-79
2023/06/16 07:52:47;;;;;;;0.10;0.10;;;;;;;;;;6166615;23;20032;-78
2023/06/16 07:55:32;;;;;;;0.10;0.10;;;;;;;;;;6163750;23;20016;-78
2023/06/16 07:58:19;;;;;;;0.10;0.10;;;;;;;;;;6163666;23;20772;-78
2023/06/16 08:01:06;;;;;;;0.10;0.10;;;;;;;;;;6164898;23;20536;-79
2023/06/16 08:03:51;;;;;;;0.10;0.10;;;;;;;;;;6166463;23;20118;-78
2023/06/16 08:06:37;;;;;;;0.10;0.10;;;;;;;;;;6165366;23;20346;-78
2023/06/16 08:09:23;;;;;;;0.10;0.10;;;;;;;;;;6163449;23;20509;-79
2023/06/16 08:12:09;;;;;;;0.10;0.10;;;;;;;;;;6165344;23;20021;-78
2023/06/16 08:15:06;;;;;;;0.10;0.10;;;;;;;;;;6164797;23;20017;-77
2023/06/16 08:17:52;;;;;;;0.10;0.10;;;;;;;;;;6165296;23;20247;-78
2023/06/16 08:20:38;;;;;;;0.10;0.10;;;;;;;;;;6122142;23;20418;-78
2023/06/16 08:23:24;;;;;;;0.10;0.10;;;;;;;;;;6142936;23;20064;-78
2023/06/16 08:26:11;;;;;;;0.10;0.10;;;;;;;;;;6165391;23;20052;-77
2023/06/16 08:28:56;;;;;;;0.10;0.10;;;;;;;;;;6166808;23;20099;-78
2023/06/16 08:31:42;;;;;;;0.05;0.05;;;;;;;;;;6165558;23;20024;-79
2023/06/16 08:34:28;;;;;;;0.05;0.05;;;;;;;;;;6164173;23;20023;-78
2023/06/16 08:37:14;;;;;;;0.13;0.13;;;;;;;;;;6163095;23;20518;-77
2023/06/16 08:40:00;;;;;;;0.10;0.10;;;;;;;;;;6165838;23;20312;-78
2023/06/16 08:42:46;;;;;;;0.10;0.10;;;;;;;;;;6168935;23;20017;-78
2023/06/16 08:45:33;;;;;;;0.00;0.00;;;;;;;;;;6166698;23;20459;-78
2023/06/16 08:48:19;;;;;;;0.00;0.00;;;;;;;;;;6165508;23;20027;-79
2023/06/16 08:51:05;;;;;;;0.10;0.10;;;;;;;;;;6168318;23;20266;-79
2023/06/16 08:53:54;;;;;;;0.10;0.10;;;;;;;;;;6165431;23;20504;-78
2023/06/16 08:56:42;;;;;;;0.00;0.00;;;;;;;;;;6121364;23;20028;-78
2023/06/16 08:59:30;;;;;;;0.10;0.10;;;;;;;;;;6142435;23;20439;-77
2023/06/16 09:02:17;;;;;;;0.00;0.00;;;;;;;;;;6163448;23;20064;-78
2023/06/16 09:08:26;;;;;;;0.10;0.10;;;;;;;;;;6163463;23;20012;-78
2023/06/16 09:11:12;;;;;;;0.10;0.10;;;;;;;;;;6166627;23;20079;-80
2023/06/16 09:14:08;;;;;;;0.10;0.10;;;;;;;;;;6144001;23;20092;-79
2023/06/16 09:16:55;;;;;;;0.10;0.10;;;;;;;;;;6165286;23;20032;-79
2023/06/16 09:19:48;;;;;;;0.00;0.00;;;;;;;;;;6166124;23;20606;-80
2023/06/16 09:22:33;;;;;;;0.10;0.10;;;;;;;;;;6140834;23;20434;-79
2023/06/16 09:25:21;;;;;;;0.00;0.00;;;;;;;;;;6163517;23;20029;-80
2023/06/16 09:28:08;;;;;;;0.10;0.10;;;;;;;;;;6119867;23;20454;-79
2023/06/16 09:31:00;;;;;;;0.10;0.10;;;;;;;;;;6165806;23;20021;-77
2023/06/16 09:33:41;;;;;;;0.10;0.10;;;;;;;;;;6219390;23;20024;-92
2023/06/16 09:36:55;;;;;;;0.10;0.10;;;;;;;;;;6222003;23;20060;-93
2023/06/16 09:39:43;;;;;;;0.10;0.10;;;;;;;;;;6198206;23;20429;-94
2023/06/16 09:45:57;;;;;;;0.10;0.10;;;;;;;;;;3797635;23;21968;-80
2023/06/16 09:48:47;;;;;;;0.00;0.00;;;;;;;;;;6015610;23;20023;-79
2023/06/16 09:51:32;;;;;;;0.10;0.10;;;;;;;;;;6020661;23;20066;-78
2023/06/16 09:54:20;;;;;;;0.03;0.03;;;;;;;;;;6017561;23;20280;-79
2023/06/16 09:57:06;;;;;;;0.10;0.10;;;;;;;;;;6021097;23;20560;-80
2023/06/16 09:59:53;;;;;;;0.10;0.10;;;;;;;;;;6020990;23;20027;-79
2023/06/16 10:02:39;;;;;;;0.00;0.00;;;;;;;;;;6019239;23;20022;-77
2023/06/16 10:05:25;;;;;;;0.10;0.10;;;;;;;;;;6020468;23;20051;-78
2023/06/16 10:08:12;;;;;;;0.10;0.10;;;;;;;;;;6019292;23;20023;-77
2023/06/16 10:10:58;;;;;;;0.00;0.00;;;;;;;;;;6020793;23;20019;-78
2023/06/16 10:13:51;;;;;;;0.00;0.00;;;;;;;;;;5999807;23;20019;-78
2023/06/16 10:16:37;;;;;;;0.00;0.00;;;;;;;;;;6020627;23;20510;-78
2023/06/16 10:19:26;;;;;;;0.00;0.00;;;;;;;;;;6020114;23;20396;-77
2023/06/16 10:22:12;;;;;;;0.10;0.10;;;;;;;;;;6000971;23;20022;-78
2023/06/16 10:25:00;;;;;;;0.00;0.00;;;;;;;;;;6021624;23;20387;-78
2023/06/16 10:27:46;;;;;;;0.10;0.10;;;;;;;;;;6020362;23;20214;-78
2023/06/16 10:30:32;;;;;;;0.13;0.13;;;;;;;;;;6017111;23;20022;-77
2023/06/16 10:33:22;;;;;;;0.10;0.10;;;;;;;;;;6019847;23;20030;-77
2023/06/16 10:36:09;;;;;;;0.10;0.10;;;;;;;;;;6019786;23;20458;-78
2023/06/16 10:38:57;;;;;;;0.10;0.10;;;;;;;;;;6019889;23;20134;-76
2023/06/16 10:41:51;;;;;;;0.00;0.00;;;;;;;;;;6020297;23;20107;-78
2023/06/16 10:44:36;;;;;;;0.10;0.10;;;;;;;;;;6020339;23;20107;-78
2023/06/16 10:47:26;;;;;;;0.10;0.10;;;;;;;;;;6018962;23;20030;-78
2023/06/16 10:50:12;;;;;;;0.00;0.00;;;;;;;;;;6022056;23;20054;-78
2023/06/16 10:53:07;;;;;;;0.00;0.00;;;;;;;;;;6019374;23;20019;-78
2023/06/16 10:56:05;;;;;;;0.10;0.10;;;;;;;;;;6019560;23;20035;-77
2023/06/16 10:58:52;;;;;;;0.10;0.10;;;;;;;;;;6019225;23;20167;-77
2023/06/16 11:01:44;;;;;;;0.08;0.08;;;;;;;;;;6019622;23;20015;-79
2023/06/16 11:04:31;;;;;;;0.10;0.10;;;;;;;;;;6019908;23;20486;-78
2023/06/16 11:07:16;;;;;;;0.10;0.10;;;;;;;;;;6020047;23;20023;-78
2023/06/16 11:10:03;;;;;;;0.10;0.10;;;;;;;;;;6022277;23;20046;-78
2023/06/16 11:16:38;;;;;;;0.00;0.00;;;;;;;;;;6018204;23;20081;-77
2023/06/16 11:19:23;;;;;;;0.20;0.20;;;;;;;;;;6018401;23;20165;-78
2023/06/16 11:22:11;;;;;;;0.00;0.00;;;;;;;;;;6019425;23;20118;-78
2023/06/16 11:24:57;;;;;;;0.10;0.10;;;;;;;;;;6020532;23;20083;-78
2023/06/16 11:27:43;;;;;;;0.10;0.10;;;;;;;;;;6000177;23;20314;-78
2023/06/16 11:30:30;;;;;;;0.10;0.10;;;;;;;;;;6019563;23;20026;-77
2023/06/16 11:33:16;;;;;;;0.10;0.10;;;;;;;;;;6018535;23;20015;-77
2023/06/16 11:36:17;;;;;;;0.20;0.20;;;;;;;;;;6021015;23;20019;-78
2023/06/16 11:39:08;;;;;;;0.10;0.10;;;;;;;;;;6022050;23;20022;-78
2023/06/16 11:41:55;;;;;;;0.00;0.00;;;;;;;;;;6019236;23;20159;-78
2023/06/16 11:44:41;;;;;;;0.00;0.00;;;;;;;;;;6020452;23;20094;-78
2023/06/16 11:47:26;;;;;;;0.10;0.10;;;;;;;;;;6018223;23;20340;-78
2023/06/16 11:50:12;;;;;;;0.00;0.00;;;;;;;;;;6020440;23;20066;-79
2023/06/16 11:52:58;;;;;;;0.10;0.10;;;;;;;;;;6019442;23;20027;-77
2023/06/16 11:55:51;;;;;;;0.10;0.10;;;;;;;;;;6020070;23;20030;-78
2023/06/16 11:58:38;;;;;;;0.15;0.15;;;;;;;;;;6018875;23;20458;-79
2023/06/16 12:01:25;;;;;;;0.10;0.10;;;;;;;;;;6018418;23;20411;-78
2023/06/16 12:04:11;;;;;;;0.00;0.00;;;;;;;;;;6018198;23;20435;-79
2023/06/16 12:06:57;;;;;;;0.10;0.10;;;;;;;;;;6020390;23;20019;-78
2023/06/16 12:09:43;;;;;;;0.20;0.20;;;;;;;;;;6021038;23;20106;-77
2023/06/16 12:12:30;;;;;;;0.00;0.00;;;;;;;;;;6018661;23;20077;-79
2023/06/16 12:15:16;;;;;;;0.10;0.10;;;;;;;;;;6017590;23;20015;-79
2023/06/16 12:18:02;;;;;;;0.10;0.10;;;;;;;;;;6019352;23;20092;-78
2023/06/16 12:33:08;;;;;;;0.10;0.10;;;;;;;40.25;13.20;96633.59;5056090;27;1293889;-79
2023/06/16 12:35:54;;;;;;;0.10;0.10;;;;;;;40.26;13.41;96634.38;5073251;28;20504;-78
2023/06/16 12:38:40;;;;;;;0.15;0.15;;;;;;;41.39;12.48;96640.88;5079153;28;20036;-79
2023/06/16 12:41:28;;;;;;;0.20;0.20;;;;;;;41.59;11.63;96647.06;5080378;28;20181;-79
2023/06/16 12:44:15;;;;;;;0.10;0.10;;;;;;;42.97;11.07;96642.91;5079242;28;20494;-79
2023/06/16 12:47:00;;;;;;;0.00;0.00;;;;;;;36.61;15.95;96649.66;5080363;28;20056;-79
2023/06/16 12:49:46;;;;;;;0.10;0.10;;;;;;;35.89;16.57;96643.94;5081582;28;20040;-80
2023/06/16 12:52:32;;;;;;;0.10;0.10;;;;;;;36.23;16.09;96644.03;5077067;28;20063;-80
2023/06/16 12:55:19;;;;;;;0.00;0.00;;;;;;;31.21;20.38;96652.47;5078586;28;20036;-80
2023/06/16 12:58:05;;;;;;;0.00;0.00;;;;;;;30.51;21.43;96651.16;5077882;28;20498;-80
2023/06/16 13:00:51;;;;;;;0.10;0.10;;;;;;;30.36;21.89;96652.94;5063658;28;20049;-79
2023/06/16 13:03:39;;;;;;;0.10;0.10;;;;;;;37.55;16.17;96642.53;5022475;28;20056;-80
2023/06/16 13:06:24;;;;;;;0.13;0.13;;;;;;;41.93;12.99;96637.19;5022873;28;20049;-79
2023/06/16 13:09:10;;;;;;;0.00;0.00;;;;;;;38.80;14.06;96627.25;5022852;28;20540;-80
2023/06/16 13:11:58;;;;;;;0.00;0.00;;;;;;;33.19;17.32;96644.06;5008682;28;20351;-80
2023/06/16 13:14:44;;;;;;;0.20;0.20;;;;;;;35.79;15.34;96634.44;5022944;28;20041;-80
2023/06/16 13:17:30;;;;;;;0.10;0.10;;;;;;;34.37;17.38;96635.84;5020696;28;20124;-80
2023/06/16 13:20:16;;;;;;;0.20;0.20;;;;;;;34.28;17.51;96643.78;5009528;28;20048;-79
2023/06/16 13:23:02;;;;;;;0.20;0.20;;;;;;;39.64;13.24;96630.69;5022436;28;20045;-79
2023/06/16 13:25:48;;;;;;;0.20;0.20;;;;;;;40.80;13.55;96628.94;5024036;28;20061;-80
2023/06/16 13:28:33;;;;;;;0.20;0.20;;;;;;;41.69;11.82;96619.88;5019412;28;20064;-80
2023/06/16 13:31:20;;;;;;;0.20;0.20;;;;;;;43.50;11.54;96614.72;5020411;28;20481;-80
2023/06/16 13:34:06;;;;;;;0.17;0.17;;;;;;;43.41;11.88;96620.31;5007032;28;20042;-80
2023/06/16 13:36:52;;;;;;;0.10;0.10;;;;;;;41.26;12.29;96617.63;5011312;28;20060;-80
2023/06/16 13:39:37;;;;;;;0.00;0.00;;;;;;;40.38;13.12;96620.41;5009390;28;20053;-80
2023/06/16 13:42:23;;;;;;;0.40;0.40;;;;;;;40.16;13.34;96611.03;5007344;28;20064;-80
2023/06/16 13:45:09;;;;;;;0.10;0.10;;;;;;;41.06;13.19;96603.78;5009419;28;20041;-80
2023/06/16 13:47:56;;;;;;;0.10;0.10;;;;;;;40.26;12.24;96606.38;5009243;28;20463;-80
2023/06/16 13:50:42;;;;;;;0.20;0.20;;;;;;;42.10;11.32;96613.31;5009557;28;20061;-80
2023/06/16 13:53:28;;;;;;;0.10;0.10;;;;;;;43.44;11.02;96608.16;5007183;28;20128;-80
2023/06/16 13:56:14;;;;;;;0.10;0.10;;;;;;;43.98;10.97;96604.75;5001145;28;20042;-80
2023/06/16 13:59:00;;;;;;;0.10;0.10;;;;;;;42.97;11.70;96614.75;5008460;28;20130;-80
2023/06/16 14:01:46;;;;;;;0.00;0.00;;;;;;;41.77;11.02;96603.63;5010184;28;20504;-80
2023/06/16 14:04:31;;;;;;;0.10;0.10;;;;;;;37.14;14.51;96607.22;5008915;28;20045;-80
2023/06/16 14:07:17;;;;;;;0.00;0.00;;;;;;;32.41;17.57;96608.47;5007758;28;20124;-81
2023/06/16 14:10:04;;;;;;;0.10;0.10;;;;;;;38.35;13.81;96602.53;5009765;28;20442;-80
2023/06/16 14:16:57;;;;;;;0.10;0.10;;;;;;;42.22;10.88;96606.91;5008073;28;20116;-80
2023/06/16 14:19:43;;;;;;;0.10;0.10;;;;;;;42.22;10.71;96597.72;5007536;28;20072;-80
2023/06/16 14:22:29;;;;;;;0.10;0.10;;;;;;;42.70;10.39;96590.00;5003497;28;20148;-80
2023/06/16 14:25:18;;;;;;;0.10;0.10;;;;;;;43.71;10.52;96587.75;5008961;28;20041;-80
2023/06/16 14:28:04;;;;;;;0.10;0.10;;;;;;;43.99;10.69;96577.34;4993503;28;20057;-80
2023/06/16 14:30:50;;;;;;;0.10;0.10;;;;;;;44.13;9.94;96585.22;5008935;28;20022;-80
2023/06/16 14:33:36;;;;;;;0.10;0.10;;;;;;;44.36;9.83;96587.44;5006194;28;20408;-79
2023/06/16 14:36:22;;;;;;;0.10;0.10;;;;;;;43.02;10.56;96577.56;5007320;28;20069;-80
2023/06/16 14:39:07;;;;;;;0.10;0.10;;;;;;;42.53;10.66;96592.19;5009942;28;20087;-80
2023/06/16 14:41:53;;;;;;;0.10;0.10;;;;;;;41.46;11.87;96585.28;5010025;28;20048;-80
2023/06/16 14:44:39;;;;;;;0.10;0.10;;;;;;;42.70;11.01;96585.16;5006831;28;20046;-80
2023/06/16 14:47:25;;;;;;;0.57;0.57;;;;;;;43.34;10.97;96579.91;5010665;28;20045;-79
2023/06/16 14:50:11;;;;;;;0.10;0.10;;;;;;;43.59;10.50;96578.19;5016722;28;20880;-79
2023/06/16 14:52:56;;;;;;;0.10;0.10;;;;;;;41.44;11.60;96578.56;5009504;28;20111;-80
2023/06/16 14:55:42;;;;;;;0.13;0.13;;;;;;;42.35;11.20;96575.19;5005402;28;20231;-80
2023/06/16 14:58:28;;;;;;;0.10;0.10;;;;;;;42.92;10.56;96573.09;5004659;28;20152;-80
2023/06/16 15:01:14;;;;;;;0.10;0.10;;;;;;;42.55;10.30;96572.84;5004473;28;20042;-81
2023/06/16 15:04:00;;;;;;;0.10;0.10;;;;;;;40.26;11.57;96567.13;4992324;28;20033;-80
2023/06/16 15:06:45;;;;;;;0.10;0.10;;;;;;;40.89;11.90;96566.59;5007810;28;20088;-80
2023/06/16 15:09:31;;;;;;;0.10;0.10;;;;;;;40.29;11.99;96563.44;5004047;28;20329;-81
2023/06/16 15:12:17;;;;;;;0.10;0.10;;;;;;;40.17;12.47;96569.78;5007642;28;20092;-80
2023/06/16 15:15:03;;;;;;;0.03;0.03;;;;;;;38.24;13.71;96570.44;5008344;28;20057;-81
2023/06/16 15:17:49;;;;;;;0.10;0.10;;;;;;;39.23;12.98;96571.25;5005009;28;20535;-80
2023/06/16 15:20:35;;;;;;;0.10;0.10;;;;;;;40.25;12.30;96566.34;5005200;28;20045;-80
2023/06/16 15:23:21;;;;;;;0.10;0.10;;;;;;;40.29;12.23;96569.03;5004071;28;20041;-80
2023/06/16 15:26:08;;;;;;;0.10;0.10;;;;;;;40.90;11.46;96568.16;5008496;28;20044;-80
2023/06/16 15:28:53;;;;;;;0.08;0.08;;;;;;;40.40;12.47;96563.16;5005287;28;20041;-80
2023/06/16 15:31:39;;;;;;;0.10;0.10;;;;;;;40.29;12.09;96557.84;5006259;28;20049;-80
2023/06/16 15:34:25;;;;;;;0.00;0.00;;;;;;;40.76;12.13;96554.53;5004223;28;20045;-80
2023/06/16 15:37:11;;;;;;;0.10;0.10;;;;;;;40.72;12.00;96553.88;5005853;28;20049;-78
2023/06/16 15:39:57;;;;;;;0.10;0.10;;;;;;;40.27;11.79;96549.09;5007930;28;20069;-77
2023/06/16 15:42:46;;;;;;;0.05;0.05;;;;;;;39.11;12.53;96557.09;5005022;28;20122;-78
2023/06/16 15:45:32;;;;;;;0.05;0.05;;;;;;;38.90;12.67;96547.94;5004374;28;20087;-77
2023/06/16 15:48:18;;;;;;;0.10;0.10;;;;;;;38.92;12.66;96553.91;5004112;28;20526;-78
2023/06/16 15:51:03;;;;;;;0.00;0.00;;;;;;;39.00;12.74;96548.97;5003749;28;20045;-79
2023/06/16 15:53:49;;;;;;;0.10;0.10;;;;;;;38.73;12.73;96552.72;5005372;28;20037;-80
2023/06/16 15:56:35;;;;;;;0.08;0.08;;;;;;;38.62;12.94;96540.16;5005115;28;20042;-80
2023/06/16 15:59:21;;;;;;;0.03;0.03;;;;;;;39.00;13.44;96535.75;5000961;28;20041;-80
2023/06/16 16:02:08;;;;;;;0.10;0.10;;;;;;;37.45;14.26;96554.22;5004983;28;20418;-80
2023/06/16 16:04:53;;;;;;;0.10;0.10;;;;;;;37.87;13.49;96553.50;5008200;28;20119;-80
2023/06/16 16:07:39;;;;;;;0.00;0.00;;;;;;;35.70;15.15;96539.50;4995305;28;20081;-80
2023/06/16 16:10:25;;;;;;;0.00;0.00;;;;;;;33.91;16.83;96552.63;5005773;28;20417;-79
2023/06/16 16:13:11;;;;;;;0.00;0.00;;;;;;;36.28;14.33;96544.13;5005284;28;20041;-80
2023/06/16 16:15:57;;;;;;;0.10;0.10;;;;;;;36.64;14.45;96535.34;4992363;28;20180;-82
2023/06/16 16:18:43;;;;;;;0.10;0.10;;;;;;;35.89;15.23;96547.31;5002238;28;20045;-80
2023/06/16 16:21:29;;;;;;;0.00;0.00;;;;;;;36.40;14.76;96545.59;5005285;28;20041;-79
2023/06/16 16:24:16;;;;;;;0.00;0.00;;;;;;;36.84;14.18;96543.88;5005363;28;20033;-79